Grande Portogallo — IBZW — position and weather

sailwx.info

Track history (hours):
 
Tides and Currents Weather Stations Pressure Air Temp Water Temp Dewpoint Dewpoint Depression Visibility Wind Speed Wind Dir Waves Ship Positions

Grande Portogallo

Last reported at 2016-Aug-28 11:32 UTC. Time now 2016-Aug-28 22:28 UTC.
Position N 36°28' W 008°48'.

Length 176 m; draft 7.9 m.

Type: Cargo ship. MMSI: 247065500.

Date/timePositionNaut miles runAvg speedWind from/ knotsBaromVisibWave heightAir tempDewpointWater temp
2016-Aug-28 11:32N 36°28' W 008°48'1514.7
2016-Aug-28 10:33N 36°32' W 009°06'1414.2
2016-Aug-28 09:32N 36°38' W 009°22'1514.9
2016-Aug-28 08:33N 36°49' W 009°33'1515.4
2016-Aug-28 07:33N 37°04' W 009°37'1615.6
2016-Aug-28 06:33N 37°19' W 009°41'1615.6
2016-Aug-28 05:33N 37°35' W 009°46'1615.6
2016-Aug-28 04:33N 37°50' W 009°51'1515.5
2016-Aug-28 03:33N 38°05' W 009°55'1515.3
2016-Aug-28 02:34N 38°20' W 009°59'1515.2
2016-Aug-28 01:34N 38°35' W 010°04'1514.5
2016-Aug-28 00:33N 38°49' W 010°06'1515.3
2016-Aug-27 23:33N 39°04' W 010°06'1515.4
2016-Aug-27 22:33N 39°20' W 010°07'1515.2
2016-Aug-27 21:33N 39°35' W 010°07'1515.4
2016-Aug-27 20:33N 39°50' W 010°07'1515.2
2016-Aug-27 19:33N 40°05' W 010°07'1615.5
2016-Aug-27 18:33N 40°21' W 010°07'1615.8
2016-Aug-27 17:33N 40°37' W 010°06'1515.1
2016-Aug-27 16:33N 40°52' W 010°06'1815.7
2016-Aug-27 15:23N 41°10' W 010°06'6015.6
2016-Aug-27 11:31N 42°11' W 010°06'1514.7
2016-Aug-27 10:28N 42°26' W 010°06'1715.0
2016-Aug-27 09:19N 42°43' W 010°06'1315.1
2016-Aug-27 08:26N 42°57' W 010°06'36115.1
2016-Aug-26 08:33N 48°19' W 006°14'1514.7
2016-Aug-26 07:34N 48°32' W 006°04'1514.9
2016-Aug-26 06:33N 48°45' W 005°53'3014.9
2016-Aug-26 04:33N 49°04' W 005°18'1717.2
2016-Aug-26 03:33N 49°13' W 004°55'1716.5
2016-Aug-26 02:33N 49°21' W 004°34'1515.2
2016-Aug-26 01:33N 49°29' W 004°13'1414.6
2016-Aug-26 00:33N 49°36' W 003°54'1414.2
2016-Aug-25 23:33N 49°43' W 003°34'1414.1
2016-Aug-25 22:33N 49°51' W 003°17'1515.0
2016-Aug-25 21:33N 49°59' W 002°57'1916.3
2016-Aug-25 20:23N 50°04' W 002°28'1517.5
2016-Aug-25 19:33N 50°08' W 002°06'1818.2
2016-Aug-25 18:33N 50°14' W 001°39'1817.8
2016-Aug-25 17:33N 50°19' W 001°13'1716.5
2016-Aug-25 16:33N 50°22' W 000°47'1515.2
2016-Aug-25 15:33N 50°26' W 000°24'1414.5
2016-Aug-25 14:33N 50°30' W 000°02'1513.8
2016-Aug-25 13:30N 50°34' E 000°20'1414.2
2016-Aug-25 12:32N 50°39' E 000°40'1816.2
2016-Aug-25 11:24N 50°50' E 001°02'1517.4
2016-Aug-25 10:33N 51°00' E 001°20'1716.9
2016-Aug-25 09:33N 51°11' E 001°40'1515.2
2016-Aug-25 08:33N 51°22' E 001°57'1313.3
2016-Aug-25 07:33N 51°20' E 002°18'1413.9
2016-Aug-25 06:34N 51°23' E 002°39'2713.2
2016-Aug-25 04:33N 51°25' E 003°22'1111.3
2016-Aug-25 03:33N 51°26' E 003°40'1110.8
2016-Aug-25 02:34N 51°22' E 003°56'9 8.8
2016-Aug-25 01:33N 51°23' E 004°10'7 7.1
2016-Aug-25 00:33N 51°17' E 004°15'1 0.7
2016-Aug-24 23:33N 51°16' E 004°14'1 0.8
2016-Aug-24 22:27N 51°16' E 004°13'0 0.0
2016-Aug-24 21:33N 51°16' E 004°13'0 0.0
2016-Aug-24 20:27N 51°16' E 004°13'0 0.0
2016-Aug-24 19:30N 51°16' E 004°13'0 0.0
2016-Aug-24 18:33N 51°16' E 004°13'0 0.0
2016-Aug-24 17:33N 51°16' E 004°13'0 0.0
2016-Aug-24 16:33N 51°16' E 004°13'0 0.0
2016-Aug-24 15:33N 51°16' E 004°13'0 0.0
2016-Aug-24 14:33N 51°16' E 004°13'0 0.0
2016-Aug-24 13:30N 51°16' E 004°13'0 0.0
2016-Aug-24 12:30N 51°16' E 004°13'0 0.0
2016-Aug-24 11:33N 51°16' E 004°13'0 0.0
2016-Aug-24 10:27N 51°16' E 004°13'0 0.0
2016-Aug-24 09:30N 51°16' E 004°13'0 0.0
2016-Aug-24 08:21N 51°16' E 004°13'0 0.0
2016-Aug-24 07:30N 51°16' E 004°13'0 0.0
2016-Aug-24 06:33N 51°16' E 004°13'0 0.0
2016-Aug-24 04:30N 51°16' E 004°13'0 0.0
2016-Aug-24 03:30N 51°16' E 004°13'0 0.0
2016-Aug-24 02:33N 51°16' E 004°13'1 1.4
2016-Aug-24 01:33N 51°17' E 004°15'1 0.7
2016-Aug-24 00:34N 51°17' E 004°15'7 7.2
2016-Aug-23 23:34N 51°24' E 004°11'9 8.8
2016-Aug-23 22:33N 51°24' E 003°57'9 9.2
2016-Aug-23 21:33N 51°24' E 003°43'10 9.7
2016-Aug-23 20:34N 51°29' E 003°29'1413.5
2016-Aug-23 19:33N 51°41' E 003°18'12 9.2
2016-Aug-23 18:14N 51°53' E 003°15'23 6.2
2016-Aug-23 14:33N 52°15' E 003°24'1110.6
2016-Aug-23 13:33N 52°25' E 003°26'1110.5
2016-Aug-23 12:33N 52°36' E 003°30'10 9.9
2016-Aug-23 11:33N 52°44' E 003°39'1212.1
2016-Aug-23 10:34N 52°53' E 003°52'1413.9
2016-Aug-23 09:34N 53°02' E 004°09'2912.1
2016-Aug-23 07:09N 53°26' E 004°37'6 9.8
2016-Aug-23 06:32N 53°31' E 004°44'1010.4
2016-Aug-23 05:33N 53°34' E 005°00'1313.1
2016-Aug-23 04:34N 53°39' E 005°21'1413.8
2016-Aug-23 03:33N 53°43' E 005°43'1413.6
2016-Aug-23 02:32N 53°47' E 006°05'1312.9
2016-Aug-23 01:33N 53°51' E 006°26'1212.2
2016-Aug-23 00:33N 53°54' E 006°46'1211.8
2016-Aug-22 23:33N 53°56' E 007°06'1211.6
2016-Aug-22 22:33N 53°59' E 007°25'1111.4
2016-Aug-22 21:33N 54°01' E 007°44'1111.2
2016-Aug-22 20:33N 54°01' E 008°03'1111.2
2016-Aug-22 19:33N 53°59' E 008°22'1615.7
2016-Aug-22 18:34N 53°51' E 008°45'1414.0
2016-Aug-22 17:33N 53°53' E 009°08'1110.8
2016-Aug-22 16:34N 53°47' E 009°23'1212.5
2016-Aug-22 15:33N 53°36' E 009°35'10 9.8
2016-Aug-22 14:33N 53°33' E 009°50'6 5.3
2016-Aug-22 13:31N 53°32' E 009°60'0 0.0
2016-Aug-22 12:31N 53°32' E 009°60'0 0.0
2016-Aug-22 11:28N 53°32' E 009°60'0 0.0
2016-Aug-22 10:33N 53°32' E 009°60'0 0.0
2016-Aug-22 09:33N 53°32' E 009°60'0 0.0
2016-Aug-22 08:33N 53°32' E 009°60'0 0.0
2016-Aug-22 07:33N 53°32' E 009°60'0 0.0
2016-Aug-22 06:33N 53°32' E 009°60'0 0.0
2016-Aug-22 05:33N 53°32' E 009°60'0 0.0
2016-Aug-22 04:33N 53°32' E 009°60'0 0.0
2016-Aug-22 03:33N 53°32' E 009°60'0 0.0
2016-Aug-22 02:33N 53°32' E 009°60'0 0.0
2016-Aug-22 01:33N 53°32' E 009°60'0 0.0
2016-Aug-22 00:30N 53°32' E 009°60'0 0.0
2016-Aug-21 23:33N 53°32' E 009°60'0 0.0
2016-Aug-21 22:33N 53°32' E 009°60'0 0.0
2016-Aug-21 21:33N 53°32' E 009°60'0 0.0
2016-Aug-21 20:33N 53°32' E 009°60'0 0.0
2016-Aug-21 19:33N 53°32' E 009°60'0 0.0
2016-Aug-21 18:33N 53°32' E 009°60'0 0.0
2016-Aug-21 17:33N 53°32' E 009°60'0 0.0
2016-Aug-21 16:33N 53°32' E 009°60'0 0.0
2016-Aug-21 15:33N 53°32' E 009°60'0 0.0
2016-Aug-21 14:33N 53°32' E 009°60'2 1.7
2016-Aug-21 13:33N 53°33' E 009°57'1110.9
2016-Aug-21 12:33N 53°34' E 009°39'1615.6
2016-Aug-21 11:33N 53°47' E 009°23'1211.8
2016-Aug-21 10:33N 53°53' E 009°06'1212.5
2016-Aug-21 09:33N 53°51' E 008°45'1312.6
2016-Aug-21 08:33N 53°59' E 008°27'1413.6
2016-Aug-21 07:33N 53°60' E 008°04'9 9.6
2016-Aug-21 06:33N 53°57' E 007°49'1414.0
2016-Aug-21 05:33N 53°54' E 007°25'1414.2
2016-Aug-21 04:34N 53°51' E 007°02'1414.1
2016-Aug-21 03:33N 53°48' E 006°39'1413.6
2016-Aug-21 02:32N 53°43' E 006°16'1413.9
2016-Aug-21 01:34N 53°39' E 005°54'1414.4
2016-Aug-21 00:33N 53°35' E 005°31'1514.6
2016-Aug-20 23:33N 53°31' E 005°07'3014.7
2016-Aug-20 21:32N 53°11' E 004°30'1615.5
2016-Aug-20 20:30N 52°57' E 004°17'3816.0
2016-Aug-20 18:07N 52°26' E 003°40'4216.4
2016-Aug-20 15:33N 51°47' E 003°17'1414.1
2016-Aug-20 14:33N 51°34' E 003°25'1111.5
2016-Aug-20 13:33N 51°26' E 003°39'2 1.6
2016-Aug-20 12:32N 51°28' E 003°41'0 0.0
2016-Aug-20 11:32N 51°28' E 003°41'0 0.0
2016-Aug-20 10:26N 51°28' E 003°41'0 0.0
2016-Aug-20 09:32N 51°28' E 003°41'0 0.0
2016-Aug-20 08:32N 51°28' E 003°41'0 0.0
2016-Aug-20 07:32N 51°28' E 003°41'0 0.0
2016-Aug-20 06:32N 51°28' E 003°41'0 0.0
2016-Aug-20 05:32N 51°28' E 003°41'0 0.0
2016-Aug-20 04:32N 51°28' E 003°41'0 0.0
2016-Aug-20 03:32N 51°28' E 003°41'0 0.0
2016-Aug-20 02:32N 51°28' E 003°41'0 0.0
2016-Aug-20 01:32N 51°28' E 003°41'6 6.6
2016-Aug-20 00:33N 51°25' E 003°32'1717.4
2016-Aug-19 23:33N 51°24' E 003°04'1313.3
2016-Aug-19 22:33N 51°22' E 002°43'1313.2
2016-Aug-19 21:34N 51°20' E 002°22'1514.9
2016-Aug-19 20:33N 51°13' E 002°01'1413.6
2016-Aug-19 19:33N 51°04' E 001°44'9 9.5
2016-Aug-19 18:33N 50°57' E 001°34'10 9.5
2016-Aug-19 17:29N 50°48' E 001°27'4812.2
2016-Aug-19 13:33N 50°24' E 000°22'1514.2
2016-Aug-19 12:31N 50°21' W 000°01'1414.7
2016-Aug-19 11:34N 50°27' W 000°20'1615.6
2016-Aug-19 10:34N 50°34' W 000°42'1414.0
2016-Aug-19 09:34N 50°43' W 000°60'1312.7
2016-Aug-19 08:34N 50°49' W 001°17'7 3.7
2016-Aug-19 06:32N 50°54' W 001°25'0 0.0
2016-Aug-19 05:32N 50°54' W 001°25'0 0.0
2016-Aug-19 04:14N 50°54' W 001°25'0 0.0
2016-Aug-19 03:14N 50°54' W 001°25'0 0.0
2016-Aug-19 02:29N 50°54' W 001°25'0 0.0
2016-Aug-19 00:26N 50°54' W 001°25'0 0.0
2016-Aug-18 23:26N 50°54' W 001°25'0 0.0
2016-Aug-18 22:29N 50°54' W 001°25'0 0.0
2016-Aug-18 21:20N 50°54' W 001°25'5 6.3
2016-Aug-18 20:34N 50°51' W 001°20'1010.5
2016-Aug-18 19:34N 50°45' W 001°06'1211.7
2016-Aug-18 18:34N 50°34' W 000°59'1716.5
2016-Aug-18 17:32N 50°29' W 001°24'1716.9
2016-Aug-18 16:32N 50°26' W 001°50'1515.9
2016-Aug-18 15:33N 50°22' W 002°14'1514.9
2016-Aug-18 14:34N 50°18' W 002°36'1414.2
2016-Aug-18 13:33N 50°14' W 002°58'1313.3
2016-Aug-18 12:34N 50°10' W 003°18'1413.6
2016-Aug-18 11:33N 50°07' W 003°38'  
Track history (hours):
 
Tides and Currents Weather Stations Pressure Air Temp Water Temp Dewpoint Dewpoint Depression Visibility Wind Speed Wind Dir Waves Ship Positions

Grande Portogallo

Last reported at 2016-Aug-28 11:32 UTC. Time now 2016-Aug-28 22:28 UTC.
Position N 36°28' W 008°48'.

Length 176 m; draft 7.9 m.

Type: Cargo ship. MMSI: 247065500.

Date/timePositionNaut miles runAvg speedWind from/ knotsBaromVisibWave heightAir tempDewpointWater temp
2016-Aug-28 11:32N 36°28' W 008°48'1514.7
2016-Aug-28 10:33N 36°32' W 009°06'1414.2
2016-Aug-28 09:32N 36°38' W 009°22'1514.9
2016-Aug-28 08:33N 36°49' W 009°33'1515.4
2016-Aug-28 07:33N 37°04' W 009°37'1615.6
2016-Aug-28 06:33N 37°19' W 009°41'1615.6
2016-Aug-28 05:33N 37°35' W 009°46'1615.6
2016-Aug-28 04:33N 37°50' W 009°51'1515.5
2016-Aug-28 03:33N 38°05' W 009°55'1515.3
2016-Aug-28 02:34N 38°20' W 009°59'1515.2
2016-Aug-28 01:34N 38°35' W 010°04'1514.5
2016-Aug-28 00:33N 38°49' W 010°06'1515.3
2016-Aug-27 23:33N 39°04' W 010°06'1515.4
2016-Aug-27 22:33N 39°20' W 010°07'1515.2
2016-Aug-27 21:33N 39°35' W 010°07'1515.4
2016-Aug-27 20:33N 39°50' W 010°07'1515.2
2016-Aug-27 19:33N 40°05' W 010°07'1615.5
2016-Aug-27 18:33N 40°21' W 010°07'1615.8
2016-Aug-27 17:33N 40°37' W 010°06'1515.1
2016-Aug-27 16:33N 40°52' W 010°06'1815.7
2016-Aug-27 15:23N 41°10' W 010°06'6015.6
2016-Aug-27 11:31N 42°11' W 010°06'1514.7
2016-Aug-27 10:28N 42°26' W 010°06'1715.0
2016-Aug-27 09:19N 42°43' W 010°06'1315.1
2016-Aug-27 08:26N 42°57' W 010°06'36115.1
2016-Aug-26 08:33N 48°19' W 006°14'1514.7
2016-Aug-26 07:34N 48°32' W 006°04'1514.9
2016-Aug-26 06:33N 48°45' W 005°53'3014.9
2016-Aug-26 04:33N 49°04' W 005°18'1717.2
2016-Aug-26 03:33N 49°13' W 004°55'1716.5
2016-Aug-26 02:33N 49°21' W 004°34'1515.2
2016-Aug-26 01:33N 49°29' W 004°13'1414.6
2016-Aug-26 00:33N 49°36' W 003°54'1414.2
2016-Aug-25 23:33N 49°43' W 003°34'1414.1
2016-Aug-25 22:33N 49°51' W 003°17'1515.0
2016-Aug-25 21:33N 49°59' W 002°57'1916.3
2016-Aug-25 20:23N 50°04' W 002°28'1517.5
2016-Aug-25 19:33N 50°08' W 002°06'1818.2
2016-Aug-25 18:33N 50°14' W 001°39'1817.8
2016-Aug-25 17:33N 50°19' W 001°13'1716.5
2016-Aug-25 16:33N 50°22' W 000°47'1515.2
2016-Aug-25 15:33N 50°26' W 000°24'1414.5
2016-Aug-25 14:33N 50°30' W 000°02'1513.8
2016-Aug-25 13:30N 50°34' E 000°20'1414.2
2016-Aug-25 12:32N 50°39' E 000°40'1816.2
2016-Aug-25 11:24N 50°50' E 001°02'1517.4
2016-Aug-25 10:33N 51°00' E 001°20'1716.9
2016-Aug-25 09:33N 51°11' E 001°40'1515.2
2016-Aug-25 08:33N 51°22' E 001°57'1313.3
2016-Aug-25 07:33N 51°20' E 002°18'1413.9
2016-Aug-25 06:34N 51°23' E 002°39'2713.2
2016-Aug-25 04:33N 51°25' E 003°22'1111.3
2016-Aug-25 03:33N 51°26' E 003°40'1110.8
2016-Aug-25 02:34N 51°22' E 003°56'9 8.8
2016-Aug-25 01:33N 51°23' E 004°10'7 7.1
2016-Aug-25 00:33N 51°17' E 004°15'1 0.7
2016-Aug-24 23:33N 51°16' E 004°14'1 0.8
2016-Aug-24 22:27N 51°16' E 004°13'0 0.0
2016-Aug-24 21:33N 51°16' E 004°13'0 0.0
2016-Aug-24 20:27N 51°16' E 004°13'0 0.0
2016-Aug-24 19:30N 51°16' E 004°13'0 0.0
2016-Aug-24 18:33N 51°16' E 004°13'0 0.0
2016-Aug-24 17:33N 51°16' E 004°13'0 0.0
2016-Aug-24 16:33N 51°16' E 004°13'0 0.0
2016-Aug-24 15:33N 51°16' E 004°13'0 0.0
2016-Aug-24 14:33N 51°16' E 004°13'0 0.0
2016-Aug-24 13:30N 51°16' E 004°13'0 0.0
2016-Aug-24 12:30N 51°16' E 004°13'0 0.0
2016-Aug-24 11:33N 51°16' E 004°13'0 0.0
2016-Aug-24 10:27N 51°16' E 004°13'0 0.0
2016-Aug-24 09:30N 51°16' E 004°13'0 0.0
2016-Aug-24 08:21N 51°16' E 004°13'0 0.0
2016-Aug-24 07:30N 51°16' E 004°13'0 0.0
2016-Aug-24 06:33N 51°16' E 004°13'0 0.0
2016-Aug-24 04:30N 51°16' E 004°13'0 0.0
2016-Aug-24 03:30N 51°16' E 004°13'0 0.0
2016-Aug-24 02:33N 51°16' E 004°13'1 1.4
2016-Aug-24 01:33N 51°17' E 004°15'1 0.7
2016-Aug-24 00:34N 51°17' E 004°15'7 7.2
2016-Aug-23 23:34N 51°24' E 004°11'9 8.8
2016-Aug-23 22:33N 51°24' E 003°57'9 9.2
2016-Aug-23 21:33N 51°24' E 003°43'10 9.7
2016-Aug-23 20:34N 51°29' E 003°29'1413.5
2016-Aug-23 19:33N 51°41' E 003°18'12 9.2
2016-Aug-23 18:14N 51°53' E 003°15'23 6.2
2016-Aug-23 14:33N 52°15' E 003°24'1110.6
2016-Aug-23 13:33N 52°25' E 003°26'1110.5
2016-Aug-23 12:33N 52°36' E 003°30'10 9.9
2016-Aug-23 11:33N 52°44' E 003°39'1212.1
2016-Aug-23 10:34N 52°53' E 003°52'1413.9
2016-Aug-23 09:34N 53°02' E 004°09'2912.1
2016-Aug-23 07:09N 53°26' E 004°37'6 9.8
2016-Aug-23 06:32N 53°31' E 004°44'1010.4
2016-Aug-23 05:33N 53°34' E 005°00'1313.1
2016-Aug-23 04:34N 53°39' E 005°21'1413.8
2016-Aug-23 03:33N 53°43' E 005°43'1413.6
2016-Aug-23 02:32N 53°47' E 006°05'1312.9
2016-Aug-23 01:33N 53°51' E 006°26'1212.2
2016-Aug-23 00:33N 53°54' E 006°46'1211.8
2016-Aug-22 23:33N 53°56' E 007°06'1211.6
2016-Aug-22 22:33N 53°59' E 007°25'1111.4
2016-Aug-22 21:33N 54°01' E 007°44'1111.2
2016-Aug-22 20:33N 54°01' E 008°03'1111.2
2016-Aug-22 19:33N 53°59' E 008°22'1615.7
2016-Aug-22 18:34N 53°51' E 008°45'1414.0
2016-Aug-22 17:33N 53°53' E 009°08'1110.8
2016-Aug-22 16:34N 53°47' E 009°23'1212.5
2016-Aug-22 15:33N 53°36' E 009°35'10 9.8
2016-Aug-22 14:33N 53°33' E 009°50'6 5.3
2016-Aug-22 13:31N 53°32' E 009°60'0 0.0
2016-Aug-22 12:31N 53°32' E 009°60'0 0.0
2016-Aug-22 11:28N 53°32' E 009°60'0 0.0
2016-Aug-22 10:33N 53°32' E 009°60'0 0.0
2016-Aug-22 09:33N 53°32' E 009°60'0 0.0
2016-Aug-22 08:33N 53°32' E 009°60'0 0.0
2016-Aug-22 07:33N 53°32' E 009°60'0 0.0
2016-Aug-22 06:33N 53°32' E 009°60'0 0.0
2016-Aug-22 05:33N 53°32' E 009°60'0 0.0
2016-Aug-22 04:33N 53°32' E 009°60'0 0.0
2016-Aug-22 03:33N 53°32' E 009°60'0 0.0
2016-Aug-22 02:33N 53°32' E 009°60'0 0.0
2016-Aug-22 01:33N 53°32' E 009°60'0 0.0
2016-Aug-22 00:30N 53°32' E 009°60'0 0.0
2016-Aug-21 23:33N 53°32' E 009°60'0 0.0
2016-Aug-21 22:33N 53°32' E 009°60'0 0.0
2016-Aug-21 21:33N 53°32' E 009°60'0 0.0
2016-Aug-21 20:33N 53°32' E 009°60'0 0.0
2016-Aug-21 19:33N 53°32' E 009°60'0 0.0
2016-Aug-21 18:33N 53°32' E 009°60'0 0.0
2016-Aug-21 17:33N 53°32' E 009°60'0 0.0
2016-Aug-21 16:33N 53°32' E 009°60'0 0.0
2016-Aug-21 15:33N 53°32' E 009°60'0 0.0
2016-Aug-21 14:33N 53°32' E 009°60'2 1.7
2016-Aug-21 13:33N 53°33' E 009°57'1110.9
2016-Aug-21 12:33N 53°34' E 009°39'1615.6
2016-Aug-21 11:33N 53°47' E 009°23'1211.8
2016-Aug-21 10:33N 53°53' E 009°06'1212.5
2016-Aug-21 09:33N 53°51' E 008°45'1312.6
2016-Aug-21 08:33N 53°59' E 008°27'1413.6
2016-Aug-21 07:33N 53°60' E 008°04'9 9.6
2016-Aug-21 06:33N 53°57' E 007°49'1414.0
2016-Aug-21 05:33N 53°54' E 007°25'1414.2
2016-Aug-21 04:34N 53°51' E 007°02'1414.1
2016-Aug-21 03:33N 53°48' E 006°39'1413.6
2016-Aug-21 02:32N 53°43' E 006°16'1413.9
2016-Aug-21 01:34N 53°39' E 005°54'1414.4
2016-Aug-21 00:33N 53°35' E 005°31'1514.6
2016-Aug-20 23:33N 53°31' E 005°07'3014.7
2016-Aug-20 21:32N 53°11' E 004°30'1615.5
2016-Aug-20 20:30N 52°57' E 004°17'3816.0
2016-Aug-20 18:07N 52°26' E 003°40'4216.4
2016-Aug-20 15:33N 51°47' E 003°17'1414.1
2016-Aug-20 14:33N 51°34' E 003°25'1111.5
2016-Aug-20 13:33N 51°26' E 003°39'2 1.6
2016-Aug-20 12:32N 51°28' E 003°41'0 0.0
2016-Aug-20 11:32N 51°28' E 003°41'0 0.0
2016-Aug-20 10:26N 51°28' E 003°41'0 0.0
2016-Aug-20 09:32N 51°28' E 003°41'0 0.0
2016-Aug-20 08:32N 51°28' E 003°41'0 0.0
2016-Aug-20 07:32N 51°28' E 003°41'0 0.0
2016-Aug-20 06:32N 51°28' E 003°41'0 0.0
2016-Aug-20 05:32N 51°28' E 003°41'0 0.0
2016-Aug-20 04:32N 51°28' E 003°41'0 0.0
2016-Aug-20 03:32N 51°28' E 003°41'0 0.0
2016-Aug-20 02:32N 51°28' E 003°41'0 0.0
2016-Aug-20 01:32N 51°28' E 003°41'6 6.6
2016-Aug-20 00:33N 51°25' E 003°32'1717.4
2016-Aug-19 23:33N 51°24' E 003°04'1313.3
2016-Aug-19 22:33N 51°22' E 002°43'1313.2
2016-Aug-19 21:34N 51°20' E 002°22'1514.9
2016-Aug-19 20:33N 51°13' E 002°01'1413.6
2016-Aug-19 19:33N 51°04' E 001°44'9 9.5
2016-Aug-19 18:33N 50°57' E 001°34'10 9.5
2016-Aug-19 17:29N 50°48' E 001°27'4812.2
2016-Aug-19 13:33N 50°24' E 000°22'1514.2
2016-Aug-19 12:31N 50°21' W 000°01'1414.7
2016-Aug-19 11:34N 50°27' W 000°20'1615.6
2016-Aug-19 10:34N 50°34' W 000°42'1414.0
2016-Aug-19 09:34N 50°43' W 000°60'1312.7
2016-Aug-19 08:34N 50°49' W 001°17'7 3.7
2016-Aug-19 06:32N 50°54' W 001°25'0 0.0
2016-Aug-19 05:32N 50°54' W 001°25'0 0.0
2016-Aug-19 04:14N 50°54' W 001°25'0 0.0
2016-Aug-19 03:14N 50°54' W 001°25'0 0.0
2016-Aug-19 02:29N 50°54' W 001°25'0 0.0
2016-Aug-19 00:26N 50°54' W 001°25'0 0.0
2016-Aug-18 23:26N 50°54' W 001°25'0 0.0
2016-Aug-18 22:29N 50°54' W 001°25'0 0.0
2016-Aug-18 21:20N 50°54' W 001°25'5 6.3
2016-Aug-18 20:34N 50°51' W 001°20'1010.5
2016-Aug-18 19:34N 50°45' W 001°06'1211.7
2016-Aug-18 18:34N 50°34' W 000°59'1716.5
2016-Aug-18 17:32N 50°29' W 001°24'1716.9
2016-Aug-18 16:32N 50°26' W 001°50'1515.9
2016-Aug-18 15:33N 50°22' W 002°14'1514.9
2016-Aug-18 14:34N 50°18' W 002°36'1414.2
2016-Aug-18 13:33N 50°14' W 002°58'1313.3
2016-Aug-18 12:34N 50°10' W 003°18'1413.6
2016-Aug-18 11:33N 50°07' W 003°38'  

Dump ship's entire track history